Aburatsu, Japan

6:35 AM JST on August 05, 2015 (GMT +0900)
Miyazaki | | Change Station
CLOSE
Current Station
Airport
Location: Miyazaki Airport,
Elevation: 26 ft
Nearby Weather Stations

Elev 26 ft 31.88 °N, 131.45 °E | Updated 25 minutes ago

Partly Cloudy
Partly Cloudy
75 °F
Feels Like 75 °F
N
6
Wind Variable Wind from West

Today
High -- | Low -- °F
--% Chance of Precip.
Yesterday
High -- | Low -- °F
Precip. -- in
5:32 AM 7:07 PM
Waning Gibbous, 74% visible
Pressure 29.80 in
Visibility 5.0 miles
Clouds Few 2000 ft
Dew Point 72 °F
Humidity 89%
Rainfall 0.00 in
Snow Depth Not available.
UV 0 out of 12
Pollen Not available.
Air Quality Not available.
Flu Activity Not available.
SPECI RJFM 042110Z 27005KT 8000 FEW020 24/22 Q1009 RMK 1CU020 A2981

More Conditions Fewer Conditions

Pressure 29.80 in
Visibility 5.0 miles
Clouds Few 2000 ft
Dew Point 72 °F
Humidity 89%
Rainfall 0.00 in
Snow Depth Not available.
UV 0 out of 12
Pollen Not available.
Air Quality Not available.
Flu Activity Not available.
SPECI RJFM 042110Z 27005KT 8000 FEW020 24/22 Q1009 RMK 1CU020 A2981

More Conditions Fewer Conditions

10-Day Weather Forecast

×

Almanac

Astronomy

Aug. 05, 2015 Rise Set
Actual Time
Civil Twilight
Nautical Twilight
Astronomical Twilight
Moon
Length of Visible Light
Length of Day
Tomorrow will be .
, % of the Moon is Illuminated

Today's Extremes

Country Highs Country Lows

Community

WunderPhotos

Upload Photos

1,843,990 photos uploaded!

WunderBlogs® & News

Nearby

Air Quality

  Air Quality AQ Index Pollutant
Not available.

Snow Depth

Station Depth Elevation

Earthquake Activity

City Distance Mag. Time & Date
Minimum magnitude displayed is 2.5.

Coastal Water Temperatures

Place Temperature

Stations

Nearby Weather Stations

Station Location Temp. Windchill Dew Point Humidity Wind Precip. Elev Updated Type